Flugplatz Mengeringhausen

Für EDVG sind keine METAR/TAF Berichte vorhanden.
Es werden die Flugwettermeldungen vom Flugplatz Kassel-Calden in 27 km Entfernung angezeigt.

Bericht für EDVK

vom 20.10. um 19:50 UTC

Wind 3 kt aus 60°

Sichtweite 10 km oder mehr

gute Sicht, keine Wolken < 5000 ft, keine CB, keine Wettererscheinungen (CAVOK)

Temperatur 13.0°C

Taupunkt 13.0°C

Luftfeuchtigkeit 100%

Luftdruck 1009 hPa

EDVK 201950Z 06003KT 020V110 CAVOK 13/13 Q1009

Prognose für EDVK

vom 20.10. um 00:00 UTC

Zwischen 00:00 UTC und 00:00 UTC

Wind 4 kt aus 120°

Sichtweite 10 km oder mehr

keine signifikanten Wettererscheinungen

keine Wolken


Zwischen 00:00 UTC und 00:00 UTC zeitweise

Wind 10 kt aus 180°

Regenschauer

aufgebrochene Bewölkung in 3000 ft


Zwischen 00:00 UTC und 00:00 UTC zeitweise mit einer Wahrscheinlichkeit von 30%

Sichtweite 2500 m

feuchter Dunst

TAF EDVK 201700Z 2018/2103 12004KT CAVOK TEMPO 2018/2023 18010KT SHRA BKN030CB PROB30 TEMPO 2023/2103 2500 BR
Impressum